sensor_id;sensor_type;location;lat;lon;timestamp;pressure;altitude;pressure_sealevel;temperature;humidity
65534;BME280;53640;55.838;37.184;2023-04-30T00:00:07;99449.88;;;6.12;38.14
65534;BME280;53640;55.838;37.184;2023-04-30T00:02:39;99462.59;;;6.03;38.57
65534;BME280;53640;55.838;37.184;2023-04-30T00:05:06;99404.59;;;5.64;38.50
65534;BME280;53640;55.838;37.184;2023-04-30T00:07:32;99392.16;;;5.49;39.01
65534;BME280;53640;55.838;37.184;2023-04-30T00:09:59;99496.94;;;6.08;38.90
65534;BME280;53640;55.838;37.184;2023-04-30T00:12:29;99401.91;;;5.50;39.20
65534;BME280;53640;55.838;37.184;2023-04-30T00:14:56;99507.25;;;6.04;38.84
65534;BME280;53640;55.838;37.184;2023-04-30T00:17:25;99531.53;;;6.26;39.01
65534;BME280;53640;55.838;37.184;2023-04-30T00:19:51;99400.03;;;5.35;39.21
65534;BME280;53640;55.838;37.184;2023-04-30T00:22:21;99456.84;;;5.77;39.03
65534;BME280;53640;55.838;37.184;2023-04-30T00:24:49;99526.41;;;6.16;39.14
65534;BME280;53640;55.838;37.184;2023-04-30T00:27:16;99419.69;;;5.51;39.49
65534;BME280;53640;55.838;37.184;2023-04-30T00:29:45;99486.94;;;6.02;39.24
65534;BME280;53640;55.838;37.184;2023-04-30T00:32:13;99440.63;;;5.70;38.88
65534;BME280;53640;55.838;37.184;2023-04-30T00:34:40;99393.66;;;5.51;38.80
65534;BME280;53640;55.838;37.184;2023-04-30T00:37:08;99457.09;;;5.82;39.13
65534;BME280;53640;55.838;37.184;2023-04-30T00:39:34;99432.47;;;5.63;39.05
65534;BME280;53640;55.838;37.184;2023-04-30T00:42:01;99493.69;;;6.12;38.95
65534;BME280;53640;55.838;37.184;2023-04-30T00:44:28;99452.94;;;5.79;39.21
65534;BME280;53640;55.838;37.184;2023-04-30T00:46:54;99478.81;;;5.95;38.91
65534;BME280;53640;55.838;37.184;2023-04-30T00:49:22;99419.22;;;5.62;39.07
65534;BME280;53640;55.838;37.184;2023-04-30T00:51:49;99395.16;;;5.54;39.17
65534;BME280;53640;55.838;37.184;2023-04-30T00:54:16;99503.47;;;6.13;39.13
65534;BME280;53640;55.838;37.184;2023-04-30T00:56:45;99468.69;;;5.97;39.18
65534;BME280;53640;55.838;37.184;2023-04-30T00:59:13;99526.41;;;6.31;39.31
65534;BME280;53640;55.838;37.184;2023-04-30T01:01:40;99487.97;;;6.01;39.34
65534;BME280;53640;55.838;37.184;2023-04-30T01:04:07;99485.09;;;6.02;39.44
65534;BME280;53640;55.838;37.184;2023-04-30T01:06:35;99486.78;;;6.03;39.64
65534;BME280;53640;55.838;37.184;2023-04-30T01:09:05;99384.50;;;5.45;39.60
65534;BME280;53640;55.838;37.184;2023-04-30T01:14:21;99479.44;;;5.97;39.55
65534;BME280;53640;55.838;37.184;2023-04-30T01:16:57;99395.25;;;5.45;39.45
65534;BME280;53640;55.838;37.184;2023-04-30T01:21:56;99384.97;;;5.34;40.09
65534;BME280;53640;55.838;37.184;2023-04-30T01:27:22;99429.09;;;5.32;41.02
65534;BME280;53640;55.838;37.184;2023-04-30T01:29:53;99390.88;;;5.07;41.37
65534;BME280;53640;55.838;37.184;2023-04-30T01:32:27;99550.22;;;6.04;41.59
65534;BME280;53640;55.838;37.184;2023-04-30T01:34:54;99532.69;;;5.79;41.36
65534;BME280;53640;55.838;37.184;2023-04-30T01:37:46;99557.91;;;5.92;41.32
65534;BME280;53640;55.838;37.184;2023-04-30T01:40:42;99549.19;;;5.90;41.56
65534;BME280;53640;55.838;37.184;2023-04-30T01:43:51;99459.00;;;5.20;41.10
65534;BME280;53640;55.838;37.184;2023-04-30T01:46:39;99422.13;;;5.00;41.25
65534;BME280;53640;55.838;37.184;2023-04-30T01:52:06;99425.47;;;5.02;41.07
65534;BME280;53640;55.838;37.184;2023-04-30T01:54:45;99460.66;;;5.21;40.77
65534;BME280;53640;55.838;37.184;2023-04-30T01:57:27;99512.75;;;5.58;40.95
65534;BME280;53640;55.838;37.184;2023-04-30T01:59:54;99509.78;;;5.53;41.16
65534;BME280;53640;55.838;37.184;2023-04-30T02:02:22;99489.94;;;5.54;40.92
65534;BME280;53640;55.838;37.184;2023-04-30T02:04:48;99396.31;;;4.98;40.96
65534;BME280;53640;55.838;37.184;2023-04-30T02:07:21;99495.59;;;5.59;41.02
65534;BME280;53640;55.838;37.184;2023-04-30T02:09:55;99563.41;;;5.99;41.09
65534;BME280;53640;55.838;37.184;2023-04-30T02:12:22;99427.84;;;5.19;41.13
65534;BME280;53640;55.838;37.184;2023-04-30T02:14:48;99531.28;;;5.83;40.97
65534;BME280;53640;55.838;37.184;2023-04-30T02:17:17;99478.38;;;5.54;41.02
65534;BME280;53640;55.838;37.184;2023-04-30T02:19:43;99405.44;;;5.12;41.15
65534;BME280;53640;55.838;37.184;2023-04-30T02:22:10;99463.56;;;5.58;41.24
65534;BME280;53640;55.838;37.184;2023-04-30T02:24:39;99419.94;;;5.41;41.19
65534;BME280;53640;55.838;37.184;2023-04-30T02:27:09;99458.47;;;5.63;41.44
65534;BME280;53640;55.838;37.184;2023-04-30T02:29:35;99489.34;;;5.82;41.41
65534;BME280;53640;55.838;37.184;2023-04-30T02:32:04;99398.28;;;5.28;41.33
65534;BME280;53640;55.838;37.184;2023-04-30T02:34:31;99380.00;;;5.23;41.35
65534;BME280;53640;55.838;37.184;2023-04-30T02:36:58;99471.19;;;5.69;41.17
65534;BME280;53640;55.838;37.184;2023-04-30T02:39:25;99523.00;;;6.07;41.17
65534;BME280;53640;55.838;37.184;2023-04-30T02:41:54;99405.09;;;5.30;41.54
65534;BME280;53640;55.838;37.184;2023-04-30T02:44:21;99446.91;;;5.62;41.47
65534;BME280;53640;55.838;37.184;2023-04-30T02:46:48;99469.91;;;5.80;41.25
65534;BME280;53640;55.838;37.184;2023-04-30T02:49:17;99441.72;;;5.61;41.48
65534;BME280;53640;55.838;37.184;2023-04-30T02:51:44;99377.63;;;5.28;41.35
65534;BME280;53640;55.838;37.184;2023-04-30T02:54:10;99413.00;;;5.47;41.33
65534;BME280;53640;55.838;37.184;2023-04-30T02:56:38;99386.53;;;5.43;41.64
65534;BME280;53640;55.838;37.184;2023-04-30T02:59:05;99376.72;;;5.36;41.48
65534;BME280;53640;55.838;37.184;2023-04-30T03:01:33;99444.25;;;5.77;41.47
65534;BME280;53640;55.838;37.184;2023-04-30T03:04:01;99454.78;;;5.93;41.54
65534;BME280;53640;55.838;37.184;2023-04-30T03:06:33;99412.72;;;5.71;41.53
65534;BME280;53640;55.838;37.184;2023-04-30T03:09:00;99395.16;;;5.54;41.32
65534;BME280;53640;55.838;37.184;2023-04-30T03:11:27;99472.56;;;6.09;41.43
65534;BME280;53640;55.838;37.184;2023-04-30T03:13:54;99457.00;;;6.05;41.27
65534;BME280;53640;55.838;37.184;2023-04-30T03:16:21;99385.63;;;5.66;41.45
65534;BME280;53640;55.838;37.184;2023-04-30T03:18:48;99345.91;;;5.47;41.34
65534;BME280;53640;55.838;37.184;2023-04-30T03:21:15;99420.63;;;5.87;41.05
65534;BME280;53640;55.838;37.184;2023-04-30T03:23:49;99461.34;;;6.21;41.48
65534;BME280;53640;55.838;37.184;2023-04-30T03:26:16;99371.53;;;5.64;41.32
65534;BME280;53640;55.838;37.184;2023-04-30T03:28:46;99459.13;;;6.24;41.31
65534;BME280;53640;55.838;37.184;2023-04-30T03:31:13;99461.06;;;6.30;41.30
65534;BME280;53640;55.838;37.184;2023-04-30T03:33:41;99404.09;;;6.05;41.40
65534;BME280;53640;55.838;37.184;2023-04-30T03:36:08;99410.84;;;6.16;40.99
65534;BME280;53640;55.838;37.184;2023-04-30T03:38:34;99354.19;;;5.81;41.29
65534;BME280;53640;55.838;37.184;2023-04-30T03:41:01;99495.66;;;6.70;41.34
65534;BME280;53640;55.838;37.184;2023-04-30T03:43:29;99422.03;;;6.34;41.20
65534;BME280;53640;55.838;37.184;2023-04-30T03:45:55;99367.16;;;5.92;41.17
65534;BME280;53640;55.838;37.184;2023-04-30T03:48:23;99335.66;;;5.86;41.68
65534;BME280;53640;55.838;37.184;2023-04-30T03:50:50;99333.63;;;5.88;41.48
65534;BME280;53640;55.838;37.184;2023-04-30T03:53:17;99317.63;;;5.80;41.25
65534;BME280;53640;55.838;37.184;2023-04-30T03:55:44;99395.63;;;6.23;41.92
65534;BME280;53640;55.838;37.184;2023-04-30T03:58:11;99434.41;;;6.50;41.65
65534;BME280;53640;55.838;37.184;2023-04-30T04:00:44;99456.66;;;6.59;42.02
65534;BME280;53640;55.838;37.184;2023-04-30T04:03:11;99340.41;;;5.84;42.13
65534;BME280;53640;55.838;37.184;2023-04-30T04:05:43;99356.97;;;5.88;42.67
65534;BME280;53640;55.838;37.184;2023-04-30T04:08:10;99431.31;;;6.32;42.95
65534;BME280;53640;55.838;37.184;2023-04-30T04:10:37;99460.69;;;6.48;42.64
65534;BME280;53640;55.838;37.184;2023-04-30T04:13:05;99454.13;;;6.36;43.29
65534;BME280;53640;55.838;37.184;2023-04-30T04:15:33;99467.81;;;6.41;43.49
65534;BME280;53640;55.838;37.184;2023-04-30T04:18:00;99385.97;;;5.92;43.81
65534;BME280;53640;55.838;37.184;2023-04-30T04:20:27;99469.47;;;6.42;44.04
65534;BME280;53640;55.838;37.184;2023-04-30T04:22:55;99461.53;;;6.34;44.04
65534;BME280;53640;55.838;37.184;2023-04-30T04:25:22;99466.66;;;6.29;44.41
65534;BME280;53640;55.838;37.184;2023-04-30T04:27:52;99430.94;;;6.20;44.36
65534;BME280;53640;55.838;37.184;2023-04-30T04:30:19;99467.34;;;6.52;44.47
65534;BME280;53640;55.838;37.184;2023-04-30T04:32:47;99391.59;;;6.12;44.81
65534;BME280;53640;55.838;37.184;2023-04-30T04:35:17;99418.72;;;6.32;44.74
65534;BME280;53640;55.838;37.184;2023-04-30T04:37:48;99461.28;;;6.65;45.33
65534;BME280;53640;55.838;37.184;2023-04-30T04:40:14;99411.75;;;6.38;44.89
65534;BME280;53640;55.838;37.184;2023-04-30T04:42:41;99424.06;;;6.47;45.42
65534;BME280;53640;55.838;37.184;2023-04-30T04:45:08;99463.75;;;6.81;45.05
65534;BME280;53640;55.838;37.184;2023-04-30T04:47:35;99462.00;;;6.88;44.95
65534;BME280;53640;55.838;37.184;2023-04-30T04:50:01;99450.91;;;6.98;44.75
65534;BME280;53640;55.838;37.184;2023-04-30T04:52:30;99414.94;;;6.84;44.49
65534;BME280;53640;55.838;37.184;2023-04-30T04:54:57;99442.97;;;7.11;44.40
65534;BME280;53640;55.838;37.184;2023-04-30T04:57:23;99425.53;;;7.07;44.33
65534;BME280;53640;55.838;37.184;2023-04-30T04:59:51;99439.97;;;7.28;44.13
65534;BME280;53640;55.838;37.184;2023-04-30T05:02:18;99429.22;;;7.28;44.06
65534;BME280;53640;55.838;37.184;2023-04-30T05:04:44;99389.28;;;7.10;43.72
65534;BME280;53640;55.838;37.184;2023-04-30T05:07:12;99389.16;;;7.18;43.81
65534;BME280;53640;55.838;37.184;2023-04-30T05:09:39;99378.38;;;7.18;43.76
65534;BME280;53640;55.838;37.184;2023-04-30T05:12:06;99405.94;;;7.42;43.99
65534;BME280;53640;55.838;37.184;2023-04-30T05:14:33;99455.06;;;7.78;44.02
65534;BME280;53640;55.838;37.184;2023-04-30T05:17:00;99422.88;;;7.70;43.44
65534;BME280;53640;55.838;37.184;2023-04-30T05:19:27;99410.44;;;7.69;43.75
65534;BME280;53640;55.838;37.184;2023-04-30T05:21:55;99425.84;;;7.82;43.74
65534;BME280;53640;55.838;37.184;2023-04-30T05:24:21;99448.78;;;7.99;43.92
65534;BME280;53640;55.838;37.184;2023-04-30T05:26:48;99431.50;;;7.94;42.80
65534;BME280;53640;55.838;37.184;2023-04-30T05:29:14;99453.38;;;8.05;42.90
65534;BME280;53640;55.838;37.184;2023-04-30T05:31:40;99449.06;;;8.18;43.12
65534;BME280;53640;55.838;37.184;2023-04-30T05:34:07;99410.81;;;7.94;42.83
65534;BME280;53640;55.838;37.184;2023-04-30T05:36:34;99443.16;;;8.29;42.60
65534;BME280;53640;55.838;37.184;2023-04-30T05:39:00;99400.09;;;8.14;42.36
65534;BME280;53640;55.838;37.184;2023-04-30T05:41:26;99454.03;;;8.55;42.59
65534;BME280;53640;55.838;37.184;2023-04-30T05:43:53;99440.31;;;8.57;41.68
65534;BME280;53640;55.838;37.184;2023-04-30T05:46:19;99455.75;;;8.70;41.48
65534;BME280;53640;55.838;37.184;2023-04-30T05:48:47;99445.59;;;8.85;40.78
65534;BME280;53640;55.838;37.184;2023-04-30T05:51:13;99412.75;;;8.68;40.02
65534;BME280;53640;55.838;37.184;2023-04-30T05:53:40;99436.28;;;8.94;39.77
65534;BME280;53640;55.838;37.184;2023-04-30T05:56:09;99404.69;;;8.81;39.44
65534;BME280;53640;55.838;37.184;2023-04-30T05:58:35;99400.56;;;8.92;39.31
65534;BME280;53640;55.838;37.184;2023-04-30T06:01:05;99414.28;;;9.11;39.15
65534;BME280;53640;55.838;37.184;2023-04-30T06:03:32;99445.25;;;9.34;39.22
65534;BME280;53640;55.838;37.184;2023-04-30T06:05:59;99427.16;;;9.28;39.58
65534;BME280;53640;55.838;37.184;2023-04-30T06:08:26;99449.00;;;9.60;38.88
65534;BME280;53640;55.838;37.184;2023-04-30T06:10:52;99428.63;;;9.71;38.42
65534;BME280;53640;55.838;37.184;2023-04-30T06:13:18;99426.69;;;9.91;37.92
65534;BME280;53640;55.838;37.184;2023-04-30T06:15:55;99426.03;;;10.02;37.62
65534;BME280;53640;55.838;37.184;2023-04-30T06:18:34;99394.81;;;10.06;36.28
65534;BME280;53640;55.838;37.184;2023-04-30T06:21:00;99458.72;;;10.66;36.12
65534;BME280;53640;55.838;37.184;2023-04-30T06:23:27;99409.00;;;10.53;36.01
65534;BME280;53640;55.838;37.184;2023-04-30T06:25:53;99457.88;;;11.03;35.25
65534;BME280;53640;55.838;37.184;2023-04-30T06:28:21;99461.69;;;11.21;34.43
65534;BME280;53640;55.838;37.184;2023-04-30T06:30:49;99432.75;;;11.21;34.16
65534;BME280;53640;55.838;37.184;2023-04-30T06:33:16;99392.97;;;11.15;34.03
65534;BME280;53640;55.838;37.184;2023-04-30T06:35:43;99403.09;;;11.26;33.06
65534;BME280;53640;55.838;37.184;2023-04-30T06:38:09;99415.50;;;11.41;33.35
65534;BME280;53640;55.838;37.184;2023-04-30T06:40:36;99438.63;;;11.62;32.67
65534;BME280;53640;55.838;37.184;2023-04-30T06:43:03;99435.03;;;11.68;32.48
65534;BME280;53640;55.838;37.184;2023-04-30T06:45:30;99442.75;;;11.71;31.31
65534;BME280;53640;55.838;37.184;2023-04-30T06:47:57;99402.53;;;11.43;30.73
65534;BME280;53640;55.838;37.184;2023-04-30T06:50:24;99408.28;;;11.53;31.07
65534;BME280;53640;55.838;37.184;2023-04-30T06:52:51;99425.91;;;11.62;31.39
65534;BME280;53640;55.838;37.184;2023-04-30T06:55:18;99430.25;;;11.70;31.27
65534;BME280;53640;55.838;37.184;2023-04-30T06:57:44;99430.69;;;11.67;30.94
65534;BME280;53640;55.838;37.184;2023-04-30T07:00:12;99356.50;;;11.18;30.69
65534;BME280;53640;55.838;37.184;2023-04-30T07:02:40;99374.06;;;11.34;30.70
65534;BME280;53640;55.838;37.184;2023-04-30T07:05:07;99405.72;;;11.58;30.62
65534;BME280;53640;55.838;37.184;2023-04-30T07:07:34;99399.84;;;11.61;30.88
65534;BME280;53640;55.838;37.184;2023-04-30T07:10:01;99386.09;;;11.63;30.95
65534;BME280;53640;55.838;37.184;2023-04-30T07:12:30;99380.44;;;11.64;30.59
65534;BME280;53640;55.838;37.184;2023-04-30T07:14:58;99385.97;;;11.76;30.33
65534;BME280;53640;55.838;37.184;2023-04-30T07:17:27;99390.50;;;11.82;29.83
65534;BME280;53640;55.838;37.184;2023-04-30T07:19:54;99392.50;;;11.68;29.05
65534;BME280;53640;55.838;37.184;2023-04-30T07:22:21;99371.53;;;11.57;29.43
65534;BME280;53640;55.838;37.184;2023-04-30T07:24:47;99344.63;;;11.37;28.88
65534;BME280;53640;55.838;37.184;2023-04-30T07:27:14;99370.31;;;11.53;28.31
65534;BME280;53640;55.838;37.184;2023-04-30T07:29:40;99357.44;;;11.48;29.38
65534;BME280;53640;55.838;37.184;2023-04-30T07:32:07;99359.47;;;11.53;29.03
65534;BME280;53640;55.838;37.184;2023-04-30T07:34:34;99359.09;;;11.74;29.00
65534;BME280;53640;55.838;37.184;2023-04-30T07:37:01;99268.13;;;10.98;28.66
65534;BME280;53640;55.838;37.184;2023-04-30T07:39:29;99344.03;;;11.54;29.02
65534;BME280;53640;55.838;37.184;2023-04-30T07:41:56;99379.66;;;11.82;28.49
65534;BME280;53640;55.838;37.184;2023-04-30T07:44:23;99323.94;;;11.61;27.90
65534;BME280;53640;55.838;37.184;2023-04-30T07:46:52;99285.78;;;11.44;27.98
65534;BME280;53640;55.838;37.184;2023-04-30T07:49:18;99296.16;;;11.47;27.40
65534;BME280;53640;55.838;37.184;2023-04-30T07:51:45;99258.03;;;11.24;26.58
65534;BME280;53640;55.838;37.184;2023-04-30T07:54:12;99324.75;;;11.62;26.81
65534;BME280;53640;55.838;37.184;2023-04-30T07:56:39;99345.28;;;11.76;26.53
65534;BME280;53640;55.838;37.184;2023-04-30T07:59:07;99341.69;;;11.82;26.96
65534;BME280;53640;55.838;37.184;2023-04-30T08:01:33;99308.44;;;11.68;26.71
65534;BME280;53640;55.838;37.184;2023-04-30T08:04:00;99338.53;;;11.85;26.98
65534;BME280;53640;55.838;37.184;2023-04-30T08:06:26;99305.72;;;11.68;26.98
65534;BME280;53640;55.838;37.184;2023-04-30T08:08:52;99312.69;;;11.83;27.58
65534;BME280;53640;55.838;37.184;2023-04-30T08:11:20;99310.34;;;11.86;27.48
65534;BME280;53640;55.838;37.184;2023-04-30T08:13:48;99297.84;;;11.85;27.27
65534;BME280;53640;55.838;37.184;2023-04-30T08:16:14;99271.75;;;11.66;27.39
65534;BME280;53640;55.838;37.184;2023-04-30T08:18:41;99264.00;;;11.51;27.58
65534;BME280;53640;55.838;37.184;2023-04-30T08:21:11;99286.81;;;11.62;27.99
65534;BME280;53640;55.838;37.184;2023-04-30T08:23:38;99251.56;;;11.43;27.83
65534;BME280;53640;55.838;37.184;2023-04-30T08:26:04;99252.03;;;11.59;27.51
65534;BME280;53640;55.838;37.184;2023-04-30T08:28:31;99231.56;;;11.44;27.52
65534;BME280;53640;55.838;37.184;2023-04-30T08:30:57;99281.84;;;11.59;28.00
65534;BME280;53640;55.838;37.184;2023-04-30T08:33:24;99254.00;;;11.51;28.14
65534;BME280;53640;55.838;37.184;2023-04-30T08:35:50;99256.09;;;11.49;27.62
65534;BME280;53640;55.838;37.184;2023-04-30T08:38:17;99259.41;;;11.51;28.06
65534;BME280;53640;55.838;37.184;2023-04-30T08:40:48;99260.69;;;11.49;28.40
65534;BME280;53640;55.838;37.184;2023-04-30T08:43:18;99251.50;;;11.50;28.60
65534;BME280;53640;55.838;37.184;2023-04-30T08:45:45;99218.75;;;11.33;28.41
65534;BME280;53640;55.838;37.184;2023-04-30T08:48:14;99209.28;;;11.24;28.79
65534;BME280;53640;55.838;37.184;2023-04-30T08:50:41;99212.22;;;11.22;28.69
65534;BME280;53640;55.838;37.184;2023-04-30T08:53:09;99207.00;;;11.21;28.78
65534;BME280;53640;55.838;37.184;2023-04-30T08:55:38;99219.81;;;11.32;29.11
65534;BME280;53640;55.838;37.184;2023-04-30T08:58:07;99228.69;;;11.39;28.97
65534;BME280;53640;55.838;37.184;2023-04-30T09:00:37;99223.63;;;11.43;28.74
65534;BME280;53640;55.838;37.184;2023-04-30T09:03:05;99216.75;;;11.29;28.98
65534;BME280;53640;55.838;37.184;2023-04-30T09:05:32;99199.25;;;11.24;28.72
65534;BME280;53640;55.838;37.184;2023-04-30T09:07:59;99159.31;;;11.01;28.40
65534;BME280;53640;55.838;37.184;2023-04-30T09:10:26;99180.75;;;11.03;29.02
65534;BME280;53640;55.838;37.184;2023-04-30T09:16:25;99144.72;;;10.84;28.63
65534;BME280;53640;55.838;37.184;2023-04-30T09:19:11;99216.75;;;11.29;29.35
65534;BME280;53640;55.838;37.184;2023-04-30T09:21:58;99129.22;;;10.91;29.06
65534;BME280;53640;55.838;37.184;2023-04-30T09:24:49;99077.16;;;10.71;28.47
65534;BME280;53640;55.838;37.184;2023-04-30T09:27:42;99157.84;;;11.36;28.17
65534;BME280;53640;55.838;37.184;2023-04-30T09:30:37;99068.47;;;10.87;28.10
65534;BME280;53640;55.838;37.184;2023-04-30T09:33:08;99167.34;;;11.45;28.27
65534;BME280;53640;55.838;37.184;2023-04-30T09:35:38;99157.59;;;11.56;28.62
65534;BME280;53640;55.838;37.184;2023-04-30T09:38:04;99145.09;;;11.55;28.31
65534;BME280;53640;55.838;37.184;2023-04-30T09:40:35;99140.16;;;11.51;29.12
65534;BME280;53640;55.838;37.184;2023-04-30T09:43:03;99152.44;;;11.66;27.77
65534;BME280;53640;55.838;37.184;2023-04-30T09:45:52;99114.66;;;11.41;27.45
65534;BME280;53640;55.838;37.184;2023-04-30T09:48:22;99108.69;;;11.32;28.13
65534;BME280;53640;55.838;37.184;2023-04-30T09:50:53;99042.94;;;10.95;27.88
65534;BME280;53640;55.838;37.184;2023-04-30T09:53:22;99062.69;;;11.14;28.08
65534;BME280;53640;55.838;37.184;2023-04-30T09:55:51;99009.16;;;10.79;28.04
65534;BME280;53640;55.838;37.184;2023-04-30T09:58:18;99088.44;;;11.35;28.19
65534;BME280;53640;55.838;37.184;2023-04-30T10:00:58;99052.94;;;11.24;28.23
65534;BME280;53640;55.838;37.184;2023-04-30T10:03:32;99052.22;;;11.17;28.49
65534;BME280;53640;55.838;37.184;2023-04-30T10:06:01;99127.00;;;11.67;28.00
65534;BME280;53640;55.838;37.184;2023-04-30T10:08:43;99046.19;;;11.15;28.54
65534;BME280;53640;55.838;37.184;2023-04-30T10:11:19;99077.66;;;11.46;28.73
65534;BME280;53640;55.838;37.184;2023-04-30T10:13:59;99139.56;;;11.80;28.45
65534;BME280;53640;55.838;37.184;2023-04-30T10:16:58;99128.34;;;11.76;29.13
65534;BME280;53640;55.838;37.184;2023-04-30T10:19:30;99073.63;;;11.37;28.70
65534;BME280;53640;55.838;37.184;2023-04-30T10:22:06;99063.13;;;11.29;28.71
65534;BME280;53640;55.838;37.184;2023-04-30T10:24:38;99073.06;;;11.47;29.40
65534;BME280;53640;55.838;37.184;2023-04-30T10:27:05;99059.75;;;11.45;29.36
65534;BME280;53640;55.838;37.184;2023-04-30T10:29:32;99067.09;;;11.57;28.95
65534;BME280;53640;55.838;37.184;2023-04-30T10:32:02;99074.19;;;11.69;29.34
65534;BME280;53640;55.838;37.184;2023-04-30T10:37:30;99091.81;;;11.79;28.03
65534;BME280;53640;55.838;37.184;2023-04-30T10:40:04;99079.72;;;11.63;28.15
65534;BME280;53640;55.838;37.184;2023-04-30T10:42:35;99085.25;;;11.56;28.06
65534;BME280;53640;55.838;37.184;2023-04-30T10:45:09;99050.22;;;10.94;28.08
65534;BME280;53640;55.838;37.184;2023-04-30T10:47:37;99101.34;;;11.21;28.42
65534;BME280;53640;55.838;37.184;2023-04-30T10:50:11;99080.16;;;10.99;28.79
65534;BME280;53640;55.838;37.184;2023-04-30T10:52:39;99121.66;;;11.30;29.07
65534;BME280;53640;55.838;37.184;2023-04-30T10:55:10;99113.03;;;11.21;29.20
65534;BME280;53640;55.838;37.184;2023-04-30T10:57:40;99121.59;;;11.37;29.76
65534;BME280;53640;55.838;37.184;2023-04-30T11:02:43;99111.13;;;11.40;29.13
65534;BME280;53640;55.838;37.184;2023-04-30T11:05:12;99097.94;;;11.44;29.41
65534;BME280;53640;55.838;37.184;2023-04-30T11:07:50;99086.50;;;11.54;29.21
65534;BME280;53640;55.838;37.184;2023-04-30T11:10:21;99073.13;;;11.59;28.96
65534;BME280;53640;55.838;37.184;2023-04-30T11:12:53;99119.81;;;12.03;28.56
65534;BME280;53640;55.838;37.184;2023-04-30T11:15:24;99127.22;;;12.07;28.00
65534;BME280;53640;55.838;37.184;2023-04-30T11:17:56;99086.66;;;11.89;28.05
65534;BME280;53640;55.838;37.184;2023-04-30T11:20:25;99081.09;;;11.95;28.03
65534;BME280;53640;55.838;37.184;2023-04-30T11:23:11;99110.13;;;12.07;27.89
65534;BME280;53640;55.838;37.184;2023-04-30T11:25:41;99093.25;;;11.93;28.19
65534;BME280;53640;55.838;37.184;2023-04-30T11:28:27;99098.69;;;11.93;28.25
65534;BME280;53640;55.838;37.184;2023-04-30T11:30:56;99080.72;;;11.80;28.28
65534;BME280;53640;55.838;37.184;2023-04-30T11:33:30;99079.38;;;11.71;28.66
65534;BME280;53640;55.838;37.184;2023-04-30T11:35:59;99069.66;;;11.82;28.33
65534;BME280;53640;55.838;37.184;2023-04-30T11:38:36;98974.38;;;10.94;28.73
65534;BME280;53640;55.838;37.184;2023-04-30T11:41:03;99024.44;;;11.22;28.87
65534;BME280;53640;55.838;37.184;2023-04-30T11:43:32;98964.69;;;10.87;29.24
65534;BME280;53640;55.838;37.184;2023-04-30T11:46:12;98985.38;;;10.99;29.15
65534;BME280;53640;55.838;37.184;2023-04-30T11:48:43;98981.69;;;10.94;29.23
65534;BME280;53640;55.838;37.184;2023-04-30T11:51:21;98926.19;;;10.73;29.16
65534;BME280;53640;55.838;37.184;2023-04-30T11:53:57;99004.38;;;11.11;29.08
65534;BME280;53640;55.838;37.184;2023-04-30T11:56:26;99059.66;;;11.52;29.29
65534;BME280;53640;55.838;37.184;2023-04-30T11:58:55;98923.78;;;10.65;29.50
65534;BME280;53640;55.838;37.184;2023-04-30T12:01:27;98987.47;;;10.97;29.82
65534;BME280;53640;55.838;37.184;2023-04-30T12:03:58;98982.78;;;11.05;29.37
65534;BME280;53640;55.838;37.184;2023-04-30T12:06:26;98964.88;;;10.92;29.44
65534;BME280;53640;55.838;37.184;2023-04-30T12:08:54;98967.66;;;10.85;29.59
65534;BME280;53640;55.838;37.184;2023-04-30T12:11:22;98980.78;;;11.00;29.76
65534;BME280;53640;55.838;37.184;2023-04-30T12:14:01;98903.47;;;10.55;29.43
65534;BME280;53640;55.838;37.184;2023-04-30T12:16:48;99011.38;;;11.31;29.90
65534;BME280;53640;55.838;37.184;2023-04-30T12:19:17;99038.78;;;11.52;29.63
65534;BME280;53640;55.838;37.184;2023-04-30T12:21:45;98947.00;;;11.02;29.67
65534;BME280;53640;55.838;37.184;2023-04-30T12:24:14;98970.59;;;11.14;29.70
65534;BME280;53640;55.838;37.184;2023-04-30T12:26:42;98882.25;;;10.71;29.60
65534;BME280;53640;55.838;37.184;2023-04-30T12:29:14;99033.63;;;11.63;29.53
65534;BME280;53640;55.838;37.184;2023-04-30T12:31:41;99003.06;;;11.44;29.73
65534;BME280;53640;55.838;37.184;2023-04-30T12:34:11;99018.63;;;11.48;29.53
65534;BME280;53640;55.838;37.184;2023-04-30T12:36:42;98981.31;;;11.20;29.40
65534;BME280;53640;55.838;37.184;2023-04-30T12:39:11;98928.94;;;10.85;29.40
65534;BME280;53640;55.838;37.184;2023-04-30T12:41:41;98911.72;;;10.79;29.41
65534;BME280;53640;55.838;37.184;2023-04-30T12:44:20;99033.72;;;11.56;29.55
65534;BME280;53640;55.838;37.184;2023-04-30T12:46:58;98989.34;;;11.27;29.65
65534;BME280;53640;55.838;37.184;2023-04-30T12:49:27;98904.66;;;10.78;29.59
65534;BME280;53640;55.838;37.184;2023-04-30T12:52:03;99028.06;;;11.58;29.58
65534;BME280;53640;55.838;37.184;2023-04-30T12:54:37;99031.22;;;11.55;29.53
65534;BME280;53640;55.838;37.184;2023-04-30T12:57:16;98960.13;;;11.17;29.67
65534;BME280;53640;55.838;37.184;2023-04-30T12:59:55;99007.09;;;11.53;29.58
65534;BME280;53640;55.838;37.184;2023-04-30T13:02:35;98950.84;;;11.25;29.76
65534;BME280;53640;55.838;37.184;2023-04-30T13:05:01;98932.31;;;11.10;29.86
65534;BME280;53640;55.838;37.184;2023-04-30T13:07:36;98940.78;;;11.14;29.79
65534;BME280;53640;55.838;37.184;2023-04-30T13:10:16;98870.53;;;10.59;29.97
65534;BME280;53640;55.838;37.184;2023-04-30T13:12:42;98932.94;;;10.94;29.79
65534;BME280;53640;55.838;37.184;2023-04-30T13:15:09;98923.88;;;10.88;29.97
65534;BME280;53640;55.838;37.184;2023-04-30T13:17:36;98863.78;;;10.49;29.98
65534;BME280;53640;55.838;37.184;2023-04-30T13:20:02;98973.88;;;11.16;30.12
65534;BME280;53640;55.838;37.184;2023-04-30T13:22:29;98974.34;;;11.13;30.11
65534;BME280;53640;55.838;37.184;2023-04-30T13:24:56;98981.09;;;11.22;30.31
65534;BME280;53640;55.838;37.184;2023-04-30T13:27:22;98967.28;;;11.12;29.92